KFLG

Flagstaff Pulliam Airport

Flagstaff, Arizona, USA
KFLG 141720Z 1418/1518 15010KT P6SM FEW150 BKN250 FM150000 VRB05KT P6SM SCT110 BKN150
Issued Valid From Valid To
Dec-14 @ 17:20 UTC
(4 hours ago)
Dec-14 @ 18:00 UTC
(4 hours ago)
Dec-15 @ 18:00 UTC
(in 20 hours)
Dec-14 @ 18:00 to Dec-15 @ 00:00
KFLG 141720Z 1418/1518 15010KT P6SM FEW150 BKN250
Wind Visibility Clouds
150° at 10 knots Greater than 6 miles
  • Few at 15,000' AGL
  • Broken at 25,000' AGL
From Dec-15 @ 00:00 to Dec-15 @ 18:00
FM150000 VRB05KT P6SM SCT110 BKN150
Wind Visibility Clouds
Variable at 5 knots Greater than 6 miles
  • Scattered at 11,000' AGL
  • Broken at 15,000' AGL
KFLG 141720Z 1418/1518 15010KT P6SM FEW150 BKN250 FM150000 VRB05KT P6SM SCT110 BKN150
Issued Dec-14 @ 17:20 UTC
(4 hours ago)
Valid From Dec-14 @ 18:00 UTC
(4 hours ago)
Valid To Dec-15 @ 18:00 UTC
(in 20 hours)
Dec-14 @ 18:00 - Dec-15 @ 00:00
Wind Visibility
150° at 10 knots Greater than 6 miles
Clouds
  • Few at 15,000' AGL
  • Broken at 25,000' AGL
From Dec-15 @ 00:00 - Dec-15 @ 18:00
Wind Visibility
Variable at 5 knots Greater than 6 miles
Clouds
  • Scattered at 11,000' AGL
  • Broken at 15,000' AGL